Strona główna
METAR-TAF:

METAR-TAF

Lotnisko :

Leesburg, Wirginia, Stany Zjednoczone

Szerokość geograficzna: 39-05N, Długość geograficzna: 077-34W, wysokość: 119 m

Aktualna obserwacja pogody

Raport powstał 12 minut temu, godzina 08:55 UTC
Wiatr 5 kt od południowy zachód
Temperatura 6°C
Wilgotność 70%
Ciśnienie 1008 hPa
Widzialność: 16.1 km
Przerywane chmury na wysokości 4600 ft
Zachmurzenie całkowite na wysokości 5000 ft

METAR: KJYO 150855Z AUTO 22005KT 10SM BKN046 OVC050 06/01 A2977 RMK AO2

czas: 04:07 (09:07 UTC)


TAF: brakujący

Obserwacja i prognoza pogody dla ponad 4000 lotnisk (raport METAR i TAF).

Dostępne stacje oznaczono żółtymi i czerwonymi punktami na mapie.

Najedź kursorem aby zobaczyć nazwę stacji.

Kliknij aby zobaczyć obserwacje i prognozy pogody.

Aby zmienić mapę: kliknij na zielony przycisk z czarnym krzyżykiem, aby powiększyć; na zielony przycisk z myślnikiem, aby pomniejszyć; na zielone strzałki, aby przejść do map sąsiednich.


METAR-TAF: